createdAt,value
2022-12-11T00:02:19.241Z,14.40
2022-12-11T00:05:06.834Z,14.60
2022-12-11T00:07:54.203Z,14.73
2022-12-11T00:10:49.485Z,13.80
2022-12-11T00:13:36.850Z,13.73
2022-12-11T00:16:26.966Z,15.20
2022-12-11T00:19:14.449Z,14.57
2022-12-11T00:21:56.637Z,13.15
2022-12-11T00:24:23.733Z,14.57
2022-12-11T00:27:14.487Z,15.75
2022-12-11T00:30:01.620Z,13.27
2022-12-11T00:32:51.194Z,15.15
2022-12-11T00:35:43.809Z,15.93
2022-12-11T00:38:31.159Z,12.95
2022-12-11T00:41:18.924Z,14.07
2022-12-11T00:44:06.147Z,13.90
2022-12-11T00:46:53.475Z,15.20
2022-12-11T00:49:42.881Z,13.52
2022-12-11T00:52:34.855Z,13.15
2022-12-11T00:55:22.156Z,10.70
2022-12-11T00:58:10.581Z,13.02
2022-12-11T01:01:06.306Z,12.75
2022-12-11T01:03:54.242Z,13.35
2022-12-11T01:06:41.276Z,10.65
2022-12-11T01:09:46.940Z,12.20
2022-12-11T01:12:34.025Z,7.55
2022-12-11T01:15:23.212Z,8.85
2022-12-11T01:18:13.170Z,13.63
2022-12-11T01:21:00.429Z,10.13
2022-12-11T01:23:50.597Z,12.65
2022-12-11T01:26:37.754Z,11.38
2022-12-11T01:29:24.934Z,10.38
2022-12-11T01:32:12.104Z,7.97
2022-12-11T01:34:59.305Z,12.98
2022-12-11T01:37:46.832Z,11.65
2022-12-11T01:40:34.105Z,11.15
2022-12-11T01:43:21.217Z,12.18
2022-12-11T01:46:08.491Z,12.68
2022-12-11T01:48:56.224Z,7.57
2022-12-11T01:52:10.191Z,9.90
2022-12-11T01:54:57.365Z,9.60
2022-12-11T01:57:46.872Z,10.77
2022-12-11T02:00:34.085Z,9.15
2022-12-11T02:03:21.444Z,7.65
2022-12-11T02:06:32.965Z,10.30
2022-12-11T02:09:25.249Z,9.13
2022-12-11T02:12:24.629Z,10.50
2022-12-11T02:15:20.708Z,6.53
2022-12-11T02:18:08.607Z,9.77
2022-12-11T02:21:13.190Z,10.77
2022-12-11T02:24:18.565Z,9.30
2022-12-11T02:27:35.018Z,11.00
2022-12-11T02:30:23.785Z,10.48
2022-12-11T02:33:12.907Z,9.90
2022-12-11T02:36:01.990Z,9.20
2022-12-11T02:38:53.398Z,9.18
2022-12-11T02:41:45.397Z,9.70
2022-12-11T02:44:35.001Z,9.30
2022-12-11T02:47:23.091Z,10.05
2022-12-11T02:50:13.673Z,9.60
2022-12-11T02:53:04.245Z,9.52
2022-12-11T02:55:56.881Z,10.30
2022-12-11T02:58:51.551Z,9.57
2022-12-11T03:01:42.080Z,9.52
2022-12-11T03:04:29.973Z,9.90
2022-12-11T03:07:23.945Z,9.55
2022-12-11T03:10:14.999Z,9.52
2022-12-11T03:13:02.989Z,8.25
2022-12-11T03:16:03.824Z,9.45
2022-12-11T03:19:24.677Z,9.77
2022-12-11T03:22:47.595Z,8.43
2022-12-11T03:25:43.777Z,9.90
2022-12-11T03:28:44.508Z,10.82
2022-12-11T03:31:42.202Z,10.20
2022-12-11T03:34:34.048Z,9.10
2022-12-11T03:37:22.988Z,11.10
2022-12-11T03:40:16.476Z,10.05
2022-12-11T03:43:05.721Z,10.98
2022-12-11T03:45:54.614Z,8.93
2022-12-11T03:48:45.590Z,10.18
2022-12-11T03:51:34.256Z,10.38
2022-12-11T03:54:23.021Z,11.65
2022-12-11T03:57:15.171Z,6.55
2022-12-11T04:00:05.332Z,11.25
2022-12-11T04:03:14.682Z,11.23
2022-12-11T04:06:02.688Z,12.50
2022-12-11T04:08:49.846Z,11.75
2022-12-11T04:11:37.173Z,12.00
2022-12-11T04:14:43.008Z,10.68
2022-12-11T04:17:50.936Z,12.27
2022-12-11T04:20:56.889Z,12.07
2022-12-11T04:24:02.843Z,12.88
2022-12-11T04:26:49.950Z,14.05
2022-12-11T04:29:37.280Z,10.50
2022-12-11T04:32:24.447Z,14.63
2022-12-11T04:35:13.156Z,14.52
2022-12-11T04:38:01.192Z,15.10
2022-12-11T04:40:48.206Z,14.60
2022-12-11T04:43:36.130Z,15.63
2022-12-11T04:46:24.860Z,13.45
2022-12-11T04:49:12.764Z,15.10
2022-12-11T04:51:59.923Z,15.68
2022-12-11T04:54:47.416Z,15.95
2022-12-11T04:57:35.091Z,17.35
2022-12-11T05:00:22.739Z,15.80
2022-12-11T05:03:10.273Z,13.48
2022-12-11T05:05:57.476Z,12.52
2022-12-11T05:08:45.403Z,15.10
2022-12-11T05:11:33.537Z,13.52
2022-12-11T05:14:21.040Z,16.45
2022-12-11T05:17:08.269Z,15.00
2022-12-11T05:19:55.490Z,16.00
2022-12-11T05:22:42.877Z,15.07
2022-12-11T05:25:30.009Z,10.77
2022-12-11T05:28:17.113Z,15.48
2022-12-11T05:31:12.080Z,14.27
2022-12-11T05:33:59.278Z,13.38
2022-12-11T05:36:46.470Z,17.60
2022-12-11T05:39:33.854Z,15.77
2022-12-11T05:42:28.548Z,13.57
2022-12-11T05:45:16.078Z,12.25
2022-12-11T05:48:03.705Z,13.23
2022-12-11T05:51:01.554Z,17.73
2022-12-11T05:53:50.714Z,19.80
2022-12-11T05:56:38.338Z,19.20
2022-12-11T05:59:25.531Z,20.10
2022-12-11T06:02:13.188Z,20.52
2022-12-11T06:05:00.529Z,18.77
2022-12-11T06:07:47.685Z,19.73
2022-12-11T06:10:34.889Z,17.65
2022-12-11T06:13:22.128Z,14.75
2022-12-11T06:16:10.125Z,16.35
2022-12-11T06:18:58.530Z,11.75
2022-12-11T06:21:45.939Z,17.83
2022-12-11T06:24:33.001Z,18.85
2022-12-11T06:27:20.223Z,16.92
2022-12-11T06:30:08.193Z,18.00
2022-12-11T06:32:55.991Z,13.68
2022-12-11T06:35:43.056Z,18.45
2022-12-11T06:38:30.277Z,19.90
2022-12-11T06:41:18.835Z,16.30
2022-12-11T06:44:05.913Z,15.85
2022-12-11T06:46:53.027Z,19.42
2022-12-11T06:49:40.268Z,17.05
2022-12-11T06:52:30.292Z,19.48
2022-12-11T06:55:17.842Z,16.90
2022-12-11T06:58:05.158Z,17.85
2022-12-11T07:00:52.317Z,16.52
2022-12-11T07:03:39.448Z,17.05
2022-12-11T07:06:28.497Z,16.60
2022-12-11T07:09:15.741Z,16.55
2022-12-11T07:12:04.098Z,15.70
2022-12-11T07:14:51.124Z,17.42
2022-12-11T07:17:38.345Z,18.27
2022-12-11T07:20:25.385Z,19.08
2022-12-11T07:23:12.509Z,16.58
2022-12-11T07:26:03.620Z,17.42
2022-12-11T07:31:37.933Z,17.15
2022-12-11T07:34:25.053Z,16.95
2022-12-11T07:37:12.176Z,17.52
2022-12-11T07:39:59.358Z,15.15
2022-12-11T07:42:46.552Z,17.58
2022-12-11T07:45:33.821Z,11.45
2022-12-11T07:48:21.050Z,13.90
2022-12-11T07:51:15.204Z,16.88
2022-12-11T07:54:16.616Z,16.10
2022-12-11T07:57:04.853Z,17.58
2022-12-11T07:59:53.495Z,17.00
2022-12-11T08:02:40.590Z,19.92
2022-12-11T08:05:27.737Z,13.35
2022-12-11T08:08:14.960Z,16.33
2022-12-11T08:11:07.284Z,18.10
2022-12-11T08:13:54.843Z,17.73
2022-12-11T08:16:44.108Z,10.52
2022-12-11T08:19:31.361Z,16.05
2022-12-11T08:22:18.506Z,16.38
2022-12-11T08:25:06.149Z,16.10
2022-12-11T08:27:53.254Z,18.85
2022-12-11T08:30:40.518Z,17.85
2022-12-11T08:33:27.642Z,18.67
2022-12-11T08:36:17.330Z,18.30
2022-12-11T08:39:04.536Z,16.55
2022-12-11T08:41:51.732Z,15.70
2022-12-11T08:44:38.982Z,16.05
2022-12-11T08:47:26.482Z,15.80
2022-12-11T08:50:13.622Z,11.70
2022-12-11T08:53:00.776Z,13.13
2022-12-11T08:55:48.001Z,13.80
2022-12-11T08:58:35.800Z,12.50
2022-12-11T09:01:26.149Z,10.65
2022-12-11T09:04:13.332Z,16.38
2022-12-11T09:07:00.565Z,14.07
2022-12-11T09:09:48.270Z,11.23
2022-12-11T09:12:36.315Z,12.45
2022-12-11T09:15:23.658Z,16.30
2022-12-11T09:18:11.676Z,14.45
2022-12-11T09:21:13.856Z,15.38
2022-12-11T09:24:01.759Z,17.63
2022-12-11T09:26:49.334Z,16.70
2022-12-11T09:29:36.501Z,16.35
2022-12-11T09:32:23.669Z,18.73
2022-12-11T09:35:11.402Z,18.40
2022-12-11T09:37:58.660Z,22.13
2022-12-11T09:40:45.735Z,21.95
2022-12-11T09:43:47.367Z,20.55
2022-12-11T09:46:36.494Z,18.10
2022-12-11T09:49:26.398Z,18.02
2022-12-11T09:52:21.343Z,18.67
2022-12-11T09:55:32.669Z,17.75
2022-12-11T10:01:43.756Z,15.32
2022-12-11T10:04:59.159Z,17.35
2022-12-11T10:08:08.326Z,18.58
2022-12-11T10:11:14.432Z,8.25
2022-12-11T10:14:04.931Z,15.32
2022-12-11T10:16:57.898Z,13.88
2022-12-11T10:19:48.944Z,14.35
2022-12-11T10:22:36.425Z,11.90
2022-12-11T10:25:31.306Z,15.55
2022-12-11T10:28:20.618Z,16.48
2022-12-11T10:31:30.491Z,14.90
2022-12-11T10:34:42.820Z,15.38
2022-12-11T10:37:29.958Z,12.52
2022-12-11T10:40:19.936Z,14.52
2022-12-11T10:43:07.193Z,16.73
2022-12-11T10:45:54.712Z,18.63
2022-12-11T10:48:56.093Z,13.70
2022-12-11T10:54:35.231Z,19.08
2022-12-11T10:57:29.682Z,16.33
2022-12-11T11:00:32.102Z,12.90
2022-12-11T11:03:27.616Z,13.60
2022-12-11T11:06:20.119Z,13.07
2022-12-11T11:09:28.980Z,12.65
2022-12-11T11:12:27.663Z,12.65
2022-12-11T11:15:29.268Z,11.52
2022-12-11T11:18:26.421Z,15.20
2022-12-11T11:21:22.603Z,14.60
2022-12-11T11:24:27.438Z,11.77
2022-12-11T11:27:35.671Z,12.48
2022-12-11T11:30:30.872Z,9.50
2022-12-11T11:33:20.722Z,16.75
2022-12-11T11:36:20.239Z,11.60
2022-12-11T11:39:25.796Z,8.55
2022-12-11T11:42:23.295Z,9.43
2022-12-11T11:45:22.857Z,12.88
2022-12-11T11:48:24.986Z,13.15
2022-12-11T11:51:34.925Z,10.60
2022-12-11T11:54:34.506Z,11.85
2022-12-11T11:57:37.477Z,15.98
2022-12-11T12:00:33.335Z,21.27
2022-12-11T12:03:24.571Z,16.40
2022-12-11T12:06:36.027Z,9.40
2022-12-11T12:09:36.682Z,12.88
2022-12-11T12:12:35.933Z,16.55
2022-12-11T12:15:31.541Z,13.55
2022-12-11T12:18:40.373Z,16.95
2022-12-11T12:21:35.508Z,14.63
2022-12-11T12:24:51.016Z,20.38
2022-12-11T12:27:53.055Z,18.55
2022-12-11T12:31:05.703Z,17.00
2022-12-11T12:34:09.921Z,17.90
2022-12-11T12:37:22.943Z,15.70
2022-12-11T12:40:28.927Z,16.10
2022-12-11T12:43:19.099Z,22.42
2022-12-11T12:46:24.375Z,20.58
2022-12-11T12:49:22.324Z,22.05
2022-12-11T12:52:20.824Z,19.05
2022-12-11T12:55:14.315Z,18.08
2022-12-11T12:58:07.503Z,20.48
2022-12-11T13:01:06.388Z,17.90
2022-12-11T13:04:03.202Z,15.02
2022-12-11T13:06:50.681Z,17.52
2022-12-11T13:09:37.864Z,14.63
2022-12-11T13:12:44.213Z,17.77
2022-12-11T13:15:34.524Z,9.73
2022-12-11T13:18:39.166Z,15.65
2022-12-11T13:21:35.134Z,11.75
2022-12-11T13:24:22.478Z,13.63
2022-12-11T13:27:30.118Z,10.07
2022-12-11T13:30:24.054Z,18.45
2022-12-11T13:33:17.851Z,15.43
2022-12-11T13:36:16.717Z,7.60
2022-12-11T13:39:17.927Z,12.68
2022-12-11T13:42:07.658Z,10.13
2022-12-11T13:44:55.331Z,14.63
2022-12-11T13:47:42.633Z,14.77
2022-12-11T13:50:32.993Z,10.27
2022-12-11T13:53:21.379Z,15.35
2022-12-11T13:56:17.458Z,12.48
2022-12-11T13:59:04.654Z,13.18
2022-12-11T14:01:55.190Z,8.60
2022-12-11T14:04:42.751Z,9.90
2022-12-11T14:07:33.739Z,10.55
2022-12-11T14:10:29.582Z,10.32
2022-12-11T14:13:25.099Z,13.23
2022-12-11T14:16:23.945Z,15.35
2022-12-11T14:19:18.099Z,15.02
2022-12-11T14:22:07.973Z,12.10
2022-12-11T14:25:02.779Z,15.00
2022-12-11T14:27:52.354Z,12.27
2022-12-11T14:30:47.082Z,9.60
2022-12-11T14:33:40.543Z,16.50
2022-12-11T14:36:29.265Z,14.15
2022-12-11T14:39:28.660Z,11.43
2022-12-11T14:42:23.185Z,11.23
2022-12-11T14:45:43.120Z,8.57
2022-12-11T14:48:36.897Z,9.93
2022-12-11T14:51:28.694Z,13.38
2022-12-11T14:54:27.994Z,14.40
2022-12-11T14:57:21.583Z,14.93
2022-12-11T15:00:09.812Z,14.00
2022-12-11T15:03:17.425Z,12.63
2022-12-11T15:06:25.835Z,16.75
2022-12-11T15:09:26.461Z,18.35
2022-12-11T15:12:17.026Z,13.25
2022-12-11T15:15:06.904Z,13.13
2022-12-11T15:17:54.055Z,11.25
2022-12-11T15:20:41.336Z,14.93
2022-12-11T15:23:29.669Z,16.52
2022-12-11T15:26:16.931Z,11.55
2022-12-11T15:29:06.709Z,8.20
2022-12-11T15:32:18.943Z,11.27
2022-12-11T15:35:52.108Z,11.77
2022-12-11T15:38:42.066Z,11.13
2022-12-11T15:41:33.210Z,13.32
2022-12-11T15:47:14.011Z,13.05
2022-12-11T15:50:08.033Z,12.98
2022-12-11T15:52:56.562Z,15.25
2022-12-11T15:55:43.858Z,15.80
2022-12-11T15:58:31.027Z,14.43
2022-12-11T16:01:18.236Z,14.55
2022-12-11T16:04:05.600Z,14.20
2022-12-11T16:06:53.253Z,13.70
2022-12-11T16:09:40.434Z,14.63
2022-12-11T16:12:27.566Z,12.73
2022-12-11T16:15:22.823Z,12.77
2022-12-11T16:18:13.853Z,14.18
2022-12-11T16:21:05.429Z,12.90
2022-12-11T16:23:52.536Z,12.10
2022-12-11T16:26:39.751Z,11.52
2022-12-11T16:29:26.906Z,13.20
2022-12-11T16:32:14.343Z,12.98
2022-12-11T16:35:01.731Z,11.30
2022-12-11T16:37:50.734Z,12.50
2022-12-11T16:40:38.388Z,14.10
2022-12-11T16:43:25.538Z,13.15
2022-12-11T16:46:12.660Z,12.02
2022-12-11T16:48:59.935Z,12.85
2022-12-11T16:51:49.227Z,14.38
2022-12-11T16:54:36.780Z,15.70
2022-12-11T16:57:24.211Z,14.25
2022-12-11T17:00:14.598Z,13.82
2022-12-11T17:03:01.889Z,13.85
2022-12-11T17:05:49.083Z,13.20
2022-12-11T17:08:36.910Z,13.63
2022-12-11T17:11:26.221Z,11.73
2022-12-11T17:14:13.387Z,12.05
2022-12-11T17:17:00.586Z,11.15
2022-12-11T17:19:47.719Z,14.77
2022-12-11T17:22:35.457Z,15.40
2022-12-11T17:25:22.571Z,15.10
2022-12-11T17:28:10.541Z,14.90
2022-12-11T17:30:58.036Z,12.95
2022-12-11T17:33:46.734Z,13.40
2022-12-11T17:36:34.103Z,12.32
2022-12-11T17:39:21.157Z,11.93
2022-12-11T17:42:08.368Z,11.65
2022-12-11T17:44:55.493Z,13.02
2022-12-11T17:47:42.639Z,13.00
2022-12-11T17:50:29.760Z,13.48
2022-12-11T17:53:18.450Z,16.05
2022-12-11T17:56:08.501Z,16.60
2022-12-11T17:58:55.656Z,15.70
2022-12-11T18:01:42.866Z,16.58
2022-12-11T18:04:30.143Z,19.67
2022-12-11T18:07:19.240Z,25.73
2022-12-11T18:10:06.591Z,24.13
2022-12-11T18:12:53.714Z,18.05
2022-12-11T18:15:41.917Z,17.23
2022-12-11T18:18:30.116Z,16.23
2022-12-11T18:21:21.575Z,18.17
2022-12-11T18:24:10.592Z,15.95
2022-12-11T18:26:59.196Z,15.73
2022-12-11T18:29:46.264Z,16.85
2022-12-11T18:32:33.480Z,14.95
2022-12-11T18:35:20.715Z,14.43
2022-12-11T18:38:08.866Z,15.82
2022-12-11T18:40:56.244Z,15.45
2022-12-11T18:43:43.800Z,15.60
2022-12-11T18:46:31.537Z,14.80
2022-12-11T18:49:19.690Z,15.25
2022-12-11T18:52:06.930Z,14.15
2022-12-11T18:54:54.088Z,15.45
2022-12-11T18:57:41.324Z,14.65
2022-12-11T19:00:28.604Z,17.73
2022-12-11T19:03:15.769Z,14.27
2022-12-11T19:06:11.399Z,14.23
2022-12-11T19:09:00.194Z,14.88
2022-12-11T19:11:47.792Z,16.80
2022-12-11T19:14:34.962Z,15.05
2022-12-11T19:17:22.087Z,15.65
2022-12-11T19:20:40.182Z,16.00
2022-12-11T19:23:18.191Z,23.25
2022-12-11T19:26:09.573Z,17.77
2022-12-11T19:29:00.195Z,15.07
2022-12-11T19:31:48.083Z,15.25
2022-12-11T19:34:35.835Z,15.65
2022-12-11T19:37:23.061Z,22.08
2022-12-11T19:40:10.614Z,16.58
2022-12-11T19:42:57.755Z,16.90
2022-12-11T19:45:45.898Z,16.80
2022-12-11T19:48:35.015Z,19.27
2022-12-11T19:51:34.664Z,16.42
2022-12-11T19:54:21.997Z,17.23
2022-12-11T19:57:10.380Z,13.07
2022-12-11T19:59:57.766Z,15.80
2022-12-11T20:02:45.082Z,16.55
2022-12-11T20:05:32.242Z,17.27
2022-12-11T20:08:43.630Z,18.35
2022-12-11T20:11:26.630Z,13.23
2022-12-11T20:14:19.473Z,12.25
2022-12-11T20:17:12.506Z,15.27
2022-12-11T20:20:00.617Z,15.68
2022-12-11T20:22:47.846Z,15.95
2022-12-11T20:25:35.114Z,15.57
2022-12-11T20:28:22.410Z,10.98
2022-12-11T20:31:18.053Z,17.10
2022-12-11T20:34:07.856Z,14.68
2022-12-11T20:36:56.327Z,13.80
2022-12-11T20:39:43.747Z,16.75
2022-12-11T20:42:31.203Z,12.43
2022-12-11T20:45:18.541Z,11.23
2022-12-11T20:48:05.852Z,11.57
2022-12-11T20:50:53.086Z,12.43
2022-12-11T20:53:41.372Z,12.05
2022-12-11T20:56:30.914Z,13.25
2022-12-11T20:59:18.290Z,13.93
2022-12-11T21:02:05.786Z,14.70
2022-12-11T21:04:53.196Z,14.52
2022-12-11T21:07:40.384Z,14.85
2022-12-11T21:10:27.601Z,15.90
2022-12-11T21:13:14.813Z,15.13
2022-12-11T21:16:07.017Z,16.10
2022-12-11T21:18:55.712Z,18.25
2022-12-11T21:21:43.438Z,19.20
2022-12-11T21:24:31.415Z,16.15
2022-12-11T21:27:18.725Z,17.52
2022-12-11T21:30:06.565Z,14.02
2022-12-11T21:32:53.672Z,13.40
2022-12-11T21:35:40.848Z,13.25
2022-12-11T21:38:29.198Z,13.65
2022-12-11T21:41:22.490Z,13.18
2022-12-11T21:47:18.722Z,13.63
2022-12-11T21:50:06.037Z,14.05
2022-12-11T21:52:53.185Z,15.27
2022-12-11T21:55:41.816Z,14.77
2022-12-11T21:58:28.980Z,16.20
2022-12-11T22:01:32.033Z,15.82
2022-12-11T22:04:19.211Z,17.40
2022-12-11T22:07:06.660Z,16.73
2022-12-11T22:09:53.825Z,15.52
2022-12-11T22:12:40.970Z,14.70
2022-12-11T22:15:28.309Z,16.95
2022-12-11T22:18:15.397Z,15.55
2022-12-11T22:21:02.528Z,16.33
2022-12-11T22:23:49.845Z,16.77
2022-12-11T22:26:37.157Z,15.20
2022-12-11T22:29:24.303Z,17.27
2022-12-11T22:32:11.411Z,15.02
2022-12-11T22:34:58.637Z,24.00
2022-12-11T22:37:45.792Z,21.77
2022-12-11T22:40:34.086Z,21.42
2022-12-11T22:43:22.138Z,20.40
2022-12-11T22:46:14.982Z,21.02
2022-12-11T22:49:02.162Z,19.65
2022-12-11T22:51:50.403Z,18.13
2022-12-11T22:54:41.945Z,16.30
2022-12-11T22:57:29.074Z,17.50
2022-12-11T23:00:16.836Z,16.48
2022-12-11T23:03:04.058Z,17.00
2022-12-11T23:05:51.299Z,18.77
2022-12-11T23:08:39.130Z,17.30
2022-12-11T23:11:29.942Z,16.33
2022-12-11T23:14:18.821Z,16.13
2022-12-11T23:17:06.005Z,18.00
2022-12-11T23:19:53.128Z,17.70
2022-12-11T23:22:40.328Z,17.05
2022-12-11T23:25:28.093Z,16.80
2022-12-11T23:28:15.204Z,16.15
2022-12-11T23:31:02.531Z,16.63
2022-12-11T23:33:49.757Z,15.40
2022-12-11T23:36:36.847Z,14.90
2022-12-11T23:39:24.049Z,15.98
2022-12-11T23:42:11.188Z,14.70
2022-12-11T23:44:58.255Z,15.50
2022-12-11T23:47:45.605Z,14.05
2022-12-11T23:50:32.951Z,15.00
2022-12-11T23:53:20.081Z,14.65
2022-12-11T23:56:10.984Z,14.20
2022-12-11T23:58:58.261Z,16.13
